Time;durP1;ratioP1;P1;durP2;ratioP2;P2;SDS_P1;SDS_P2;PMS_P1;PMS_P2;Temp;Humidity;BMP_temperature;BMP_pressure;BME280_temperature;BME280_humidity;BME280_pressure;Samples;Min_cycle;Max_cycle;Signal;HPM_P1;HPM_P2
2023/03/07 00:00:59;;;;;;;4.93;4.53;;;;;;;;;;5140800;27;20234;-60
2023/03/07 00:03:28;;;;;;;5.13;4.70;;;;;;;;;;5140820;27;20529;-61
2023/03/07 00:06:01;;;;;;;4.80;4.40;;;;;;;;;;5140558;27;20209;-61
2023/03/07 00:08:29;;;;;;;5.15;4.65;;;;;;;;;;5139534;27;20612;-61
2023/03/07 00:10:56;;;;;;;5.10;4.60;;;;;;;;;;5140266;27;20249;-61
2023/03/07 00:13:24;;;;;;;4.90;4.50;;;;;;;;;;5140333;27;20685;-61
2023/03/07 00:15:51;;;;;;;5.10;4.70;;;;;;;;;;5139344;27;20342;-63
2023/03/07 00:18:19;;;;;;;5.10;4.65;;;;;;;;;;5139474;27;20233;-61
2023/03/07 00:20:58;;;;;;;4.95;4.55;;;;;;;;;;5140304;27;20202;-60
2023/03/07 00:23:25;;;;;;;5.45;5.00;;;;;;;;;;5140133;27;20217;-60
2023/03/07 00:25:57;;;;;;;5.43;4.93;;;;;;;;;;5140268;27;20298;-62
2023/03/07 00:28:24;;;;;;;4.95;4.55;;;;;;;;;;5140298;27;20241;-60
2023/03/07 00:30:52;;;;;;;4.72;4.32;;;;;;;;;;5139765;27;20234;-60
2023/03/07 00:33:19;;;;;;;5.15;4.75;;;;;;;;;;5119809;27;20245;-61
2023/03/07 00:35:56;;;;;;;4.78;4.38;;;;;;;;;;5119090;28;20258;-61
2023/03/07 00:38:24;;;;;;;5.22;4.80;;;;;;;;;;5119041;28;20336;-61
2023/03/07 00:40:58;;;;;;;5.32;4.82;;;;;;;;;;5119546;28;20203;-61
2023/03/07 00:43:25;;;;;;;5.22;4.72;;;;;;;;;;5118892;28;20256;-61
2023/03/07 00:45:53;;;;;;;4.97;4.57;;;;;;;;;;5119304;28;20264;-61
2023/03/07 00:48:20;;;;;;;5.00;4.60;;;;;;;;;;5118958;28;20203;-61
2023/03/07 00:50:48;;;;;;;5.35;4.95;;;;;;;;;;5118017;28;20259;-61
2023/03/07 00:53:17;;;;;;;4.78;4.38;;;;;;;;;;5118933;28;20293;-61
2023/03/07 00:55:53;;;;;;;5.28;4.78;;;;;;;;;;5118758;28;20615;-61
2023/03/07 00:58:21;;;;;;;5.00;4.60;;;;;;;;;;5118924;28;20242;-61
2023/03/07 01:00:48;;;;;;;4.70;4.30;;;;;;;;;;5118777;28;20511;-61
2023/03/07 01:03:15;;;;;;;5.00;4.57;;;;;;;;;;5118630;28;20293;-61
2023/03/07 01:05:43;;;;;;;5.13;4.63;;;;;;;;;;5118670;28;20249;-61
2023/03/07 01:08:10;;;;;;;5.07;4.68;;;;;;;;;;5118382;28;20238;-61
2023/03/07 01:10:39;;;;;;;5.53;5.03;;;;;;;;;;5118429;28;20202;-61
2023/03/07 01:13:08;;;;;;;5.55;5.07;;;;;;;;;;5118005;28;20238;-60
2023/03/07 01:15:36;;;;;;;5.32;4.90;;;;;;;;;;5118192;28;20231;-61
2023/03/07 01:18:04;;;;;;;5.30;4.85;;;;;;;;;;5118341;28;20249;-61
2023/03/07 01:20:32;;;;;;;5.20;4.75;;;;;;;;;;5118596;28;20203;-61
2023/03/07 01:22:59;;;;;;;5.05;4.65;;;;;;;;;;5118356;28;20203;-61
2023/03/07 01:25:26;;;;;;;5.40;4.90;;;;;;;;;;5118035;28;20598;-61
2023/03/07 01:27:55;;;;;;;6.00;5.40;;;;;;;;;;5118161;28;20246;-61
2023/03/07 01:30:23;;;;;;;5.45;4.95;;;;;;;;;;5118384;28;20673;-61
2023/03/07 01:32:55;;;;;;;5.07;4.68;;;;;;;;;;5134166;27;20237;-61
2023/03/07 01:35:23;;;;;;;5.15;4.72;;;;;;;;;;5138237;28;20237;-61
2023/03/07 01:37:50;;;;;;;4.90;4.50;;;;;;;;;;5138829;28;20289;-61
2023/03/07 01:40:18;;;;;;;5.53;5.03;;;;;;;;;;5138980;28;20202;-60
2023/03/07 01:42:46;;;;;;;5.40;4.90;;;;;;;;;;5138102;28;20245;-61
2023/03/07 01:45:31;;;;;;;5.78;5.28;;;;;;;;;;5138722;28;20700;-61
2023/03/07 01:48:00;;;;;;;5.10;4.70;;;;;;;;;;5138738;28;20230;-60
2023/03/07 01:50:28;;;;;;;5.55;5.05;;;;;;;;;;5138920;27;20269;-61
2023/03/07 01:52:57;;;;;;;5.28;4.80;;;;;;;;;;5138893;28;20294;-61
2023/03/07 01:55:27;;;;;;;5.13;4.70;;;;;;;;;;5138678;28;20221;-61
2023/03/07 01:57:55;;;;;;;5.40;4.93;;;;;;;;;;5138743;27;20281;-61
2023/03/07 02:00:28;;;;;;;5.40;4.90;;;;;;;;;;5139130;27;20210;-60
2023/03/07 02:03:00;;;;;;;5.25;4.75;;;;;;;;;;5138233;28;20327;-61
2023/03/07 02:05:32;;;;;;;5.60;5.10;;;;;;;;;;5138614;28;20293;-62
2023/03/07 02:08:01;;;;;;;5.13;4.63;;;;;;;;;;5138894;28;20248;-61
2023/03/07 02:10:29;;;;;;;5.30;4.80;;;;;;;;;;5138750;28;20293;-62
2023/03/07 02:12:56;;;;;;;4.80;4.40;;;;;;;;;;5138305;28;20285;-62
2023/03/07 02:15:24;;;;;;;5.18;4.75;;;;;;;;;;5138962;28;20229;-61
2023/03/07 02:17:52;;;;;;;4.82;4.43;;;;;;;;;;5138153;28;20311;-61
2023/03/07 02:20:26;;;;;;;4.95;4.55;;;;;;;;;;5138005;28;20586;-61
2023/03/07 02:22:56;;;;;;;4.95;4.45;;;;;;;;;;5138821;28;20288;-61
2023/03/07 02:25:28;;;;;;;5.10;4.68;;;;;;;;;;5138314;28;20230;-61
2023/03/07 02:27:58;;;;;;;5.15;4.65;;;;;;;;;;5139120;28;20217;-60
2023/03/07 02:30:25;;;;;;;5.00;4.60;;;;;;;;;;5138016;28;20198;-61
2023/03/07 02:32:53;;;;;;;5.00;4.50;;;;;;;;;;5138406;28;20234;-61
2023/03/07 02:35:23;;;;;;;5.22;4.72;;;;;;;;;;5137781;28;20233;-61
2023/03/07 02:37:51;;;;;;;4.60;4.20;;;;;;;;;;5138120;28;20198;-61
2023/03/07 02:40:21;;;;;;;4.72;4.32;;;;;;;;;;5140257;27;20262;-61
2023/03/07 02:42:48;;;;;;;4.78;4.38;;;;;;;;;;5134740;27;20213;-61
2023/03/07 02:45:18;;;;;;;4.70;4.30;;;;;;;;;;5141067;27;20202;-60
2023/03/07 02:47:46;;;;;;;5.50;5.00;;;;;;;;;;5141606;27;20231;-61
2023/03/07 02:50:14;;;;;;;5.07;4.68;;;;;;;;;;5142156;27;20240;-61
2023/03/07 02:52:41;;;;;;;5.07;4.68;;;;;;;;;;5142307;27;20535;-60
2023/03/07 02:55:10;;;;;;;4.90;4.50;;;;;;;;;;5141106;27;20203;-62
2023/03/07 02:57:37;;;;;;;5.28;4.82;;;;;;;;;;5141316;27;20554;-60
2023/03/07 03:00:07;;;;;;;5.05;4.57;;;;;;;;;;5141737;27;20293;-61
2023/03/07 03:02:36;;;;;;;5.10;4.70;;;;;;;;;;5141267;27;20238;-61
2023/03/07 03:05:05;;;;;;;5.68;5.18;;;;;;;;;;5141637;27;20220;-62
2023/03/07 03:07:32;;;;;;;5.28;4.80;;;;;;;;;;5141068;27;20281;-61
2023/03/07 03:09:59;;;;;;;5.38;4.88;;;;;;;;;;5141769;27;20293;-61
2023/03/07 03:12:27;;;;;;;5.57;5.07;;;;;;;;;;5141523;27;20610;-61
2023/03/07 03:14:54;;;;;;;5.40;4.90;;;;;;;;;;5141275;27;20469;-61
2023/03/07 03:17:22;;;;;;;4.88;4.47;;;;;;;;;;5141737;27;20232;-62
2023/03/07 03:19:51;;;;;;;5.20;4.70;;;;;;;;;;5141639;27;20263;-61
2023/03/07 03:22:19;;;;;;;5.30;4.80;;;;;;;;;;5141095;27;20252;-61
2023/03/07 03:24:46;;;;;;;5.25;4.82;;;;;;;;;;5140767;27;20199;-61
2023/03/07 03:27:14;;;;;;;4.80;4.40;;;;;;;;;;5141430;27;20583;-61
2023/03/07 03:29:41;;;;;;;5.53;5.03;;;;;;;;;;5141290;27;20613;-61
2023/03/07 03:32:08;;;;;;;5.00;4.60;;;;;;;;;;5140795;27;20226;-61
2023/03/07 03:34:36;;;;;;;5.40;4.90;;;;;;;;;;5140846;27;20677;-61
2023/03/07 03:37:06;;;;;;;4.95;4.45;;;;;;;;;;5141195;27;20222;-64
2023/03/07 03:39:34;;;;;;;5.43;4.93;;;;;;;;;;5140717;27;20264;-61
2023/03/07 03:42:01;;;;;;;5.25;4.75;;;;;;;;;;5140504;27;20661;-61
2023/03/07 03:44:29;;;;;;;5.22;4.72;;;;;;;;;;5140390;27;20468;-61
2023/03/07 03:46:57;;;;;;;5.38;4.88;;;;;;;;;;5140591;27;20199;-61
2023/03/07 03:49:24;;;;;;;5.55;5.00;;;;;;;;;;5140431;27;20326;-61
2023/03/07 03:51:52;;;;;;;4.82;4.43;;;;;;;;;;5139437;27;20285;-61
2023/03/07 03:54:20;;;;;;;5.40;4.90;;;;;;;;;;5139367;27;20203;-61
2023/03/07 03:56:48;;;;;;;5.50;5.00;;;;;;;;;;5139756;27;20214;-61
2023/03/07 03:59:16;;;;;;;5.55;5.05;;;;;;;;;;5139292;27;20202;-61
2023/03/07 04:01:44;;;;;;;4.88;4.47;;;;;;;;;;5139387;27;20202;-61
2023/03/07 04:04:12;;;;;;;5.50;5.00;;;;;;;;;;5139258;27;20206;-61
2023/03/07 04:06:41;;;;;;;5.18;4.68;;;;;;;;;;5139593;27;20198;-61
2023/03/07 04:09:08;;;;;;;5.47;4.97;;;;;;;;;;5139781;27;20283;-61
2023/03/07 04:11:38;;;;;;;5.25;4.80;;;;;;;;;;5139110;27;20202;-61
2023/03/07 04:14:05;;;;;;;5.32;4.82;;;;;;;;;;5139870;27;20238;-61
2023/03/07 04:16:33;;;;;;;4.93;4.53;;;;;;;;;;5139767;27;20222;-62
2023/03/07 04:19:00;;;;;;;5.13;4.63;;;;;;;;;;5139058;27;20205;-61
2023/03/07 04:21:28;;;;;;;5.47;4.97;;;;;;;;;;5139636;27;20202;-61
2023/03/07 04:23:57;;;;;;;5.68;5.18;;;;;;;;;;5139507;27;20202;-61
2023/03/07 04:26:24;;;;;;;5.45;4.95;;;;;;;;;;5139207;27;20294;-61
2023/03/07 04:28:53;;;;;;;5.50;5.00;;;;;;;;;;5139482;27;20202;-61
2023/03/07 04:31:22;;;;;;;5.85;5.35;;;;;;;;;;5139321;27;20490;-60
2023/03/07 04:33:49;;;;;;;5.22;4.72;;;;;;;;;;5139725;27;20216;-61
2023/03/07 04:36:17;;;;;;;5.38;4.88;;;;;;;;;;5139594;27;20325;-61
2023/03/07 04:38:45;;;;;;;4.93;4.53;;;;;;;;;;5139986;27;20238;-61
2023/03/07 04:41:14;;;;;;;5.55;5.05;;;;;;;;;;5139654;27;20293;-61
2023/03/07 04:43:41;;;;;;;5.50;5.00;;;;;;;;;;5139327;27;20202;-61
2023/03/07 04:46:11;;;;;;;4.95;4.50;;;;;;;;;;5139198;27;20478;-61
2023/03/07 04:48:38;;;;;;;5.50;5.00;;;;;;;;;;5138937;27;20225;-61
2023/03/07 04:51:06;;;;;;;5.70;5.20;;;;;;;;;;5139358;27;20297;-61
2023/03/07 04:53:34;;;;;;;5.47;4.97;;;;;;;;;;5138643;27;20621;-61
2023/03/07 04:56:02;;;;;;;5.38;4.88;;;;;;;;;;5138845;27;20293;-61
2023/03/07 04:58:29;;;;;;;5.68;5.18;;;;;;;;;;5138890;27;20206;-61
2023/03/07 05:00:57;;;;;;;5.57;5.07;;;;;;;;;;5139113;27;20309;-61
2023/03/07 05:03:27;;;;;;;5.50;5.00;;;;;;;;;;5138547;27;20241;-60
2023/03/07 05:05:54;;;;;;;5.35;4.85;;;;;;;;;;5138576;27;20693;-61
2023/03/07 05:08:22;;;;;;;5.50;5.00;;;;;;;;;;5139145;27;20342;-61
2023/03/07 05:10:50;;;;;;;5.50;5.00;;;;;;;;;;5138996;27;20573;-61
2023/03/07 05:13:17;;;;;;;5.47;4.97;;;;;;;;;;5138605;27;20198;-60
2023/03/07 05:15:44;;;;;;;4.72;4.32;;;;;;;;;;5139178;27;20212;-61
2023/03/07 05:18:12;;;;;;;5.43;4.93;;;;;;;;;;5138674;27;20953;-61
2023/03/07 05:20:42;;;;;;;4.97;4.57;;;;;;;;;;5138461;27;20495;-61
2023/03/07 05:23:09;;;;;;;5.40;4.90;;;;;;;;;;5138586;27;20237;-61
2023/03/07 05:25:36;;;;;;;5.10;4.60;;;;;;;;;;5138702;27;20300;-61
2023/03/07 05:28:04;;;;;;;5.22;4.72;;;;;;;;;;5138011;27;20677;-61
2023/03/07 05:30:31;;;;;;;5.05;4.55;;;;;;;;;;5138099;27;20285;-61
2023/03/07 05:32:59;;;;;;;5.25;4.75;;;;;;;;;;5137925;27;20333;-61
2023/03/07 05:35:26;;;;;;;5.30;4.80;;;;;;;;;;5137731;28;20681;-60
2023/03/07 05:37:55;;;;;;;5.38;4.88;;;;;;;;;;5137847;28;20317;-61
2023/03/07 05:40:22;;;;;;;4.72;4.32;;;;;;;;;;5137068;28;20288;-62
2023/03/07 05:42:50;;;;;;;5.60;5.10;;;;;;;;;;5137167;28;20208;-62
2023/03/07 05:45:19;;;;;;;5.03;4.53;;;;;;;;;;5137784;28;20301;-60
2023/03/07 05:47:46;;;;;;;5.00;4.50;;;;;;;;;;5136536;28;20198;-62
2023/03/07 05:50:14;;;;;;;4.60;4.20;;;;;;;;;;5135762;28;20209;-60
2023/03/07 05:52:41;;;;;;;5.20;4.70;;;;;;;;;;5136962;28;20198;-61
2023/03/07 05:55:11;;;;;;;4.82;4.40;;;;;;;;;;5136906;28;20259;-61
2023/03/07 05:57:38;;;;;;;4.97;4.50;;;;;;;;;;5136234;28;20265;-60
2023/03/07 06:00:07;;;;;;;4.75;4.35;;;;;;;;;;5136752;28;20297;-61
2023/03/07 06:02:34;;;;;;;4.72;4.32;;;;;;;;;;5135850;28;20297;-60
2023/03/07 06:05:02;;;;;;;4.63;4.22;;;;;;;;;;5136473;28;20298;-61
2023/03/07 06:07:29;;;;;;;4.38;3.97;;;;;;;;;;5135979;28;20233;-62
2023/03/07 06:09:56;;;;;;;4.85;4.45;;;;;;;;;;5136402;28;20664;-60
2023/03/07 06:12:25;;;;;;;4.53;4.13;;;;;;;;;;5135749;28;20489;-61
2023/03/07 06:14:53;;;;;;;5.07;4.68;;;;;;;;;;5137474;27;20198;-61
2023/03/07 06:17:20;;;;;;;4.35;3.95;;;;;;;;;;5139517;27;20329;-61
2023/03/07 06:19:48;;;;;;;4.15;3.85;;;;;;;;;;5139439;27;20297;-61
2023/03/07 06:22:15;;;;;;;4.30;3.90;;;;;;;;;;5140211;27;20293;-61
2023/03/07 06:24:43;;;;;;;4.35;3.95;;;;;;;;;;5139374;27;20198;-61
2023/03/07 06:27:10;;;;;;;4.60;4.20;;;;;;;;;;5139474;27;20253;-61
2023/03/07 06:29:39;;;;;;;5.03;4.25;;;;;;;;;;5139226;27;20297;-61
2023/03/07 06:32:07;;;;;;;4.53;4.13;;;;;;;;;;5138798;27;20316;-61
2023/03/07 06:34:34;;;;;;;4.45;4.05;;;;;;;;;;5138895;27;20240;-61
2023/03/07 06:37:02;;;;;;;4.57;4.10;;;;;;;;;;5139407;27;20218;-61
2023/03/07 06:39:29;;;;;;;4.88;4.38;;;;;;;;;;5138875;27;20239;-61
2023/03/07 06:41:57;;;;;;;4.63;4.22;;;;;;;;;;5138154;27;20238;-61
2023/03/07 06:44:24;;;;;;;5.57;5.07;;;;;;;;;;5138534;27;20555;-61
2023/03/07 06:46:53;;;;;;;4.97;4.47;;;;;;;;;;5138487;27;20305;-61
2023/03/07 06:49:20;;;;;;;5.82;5.18;;;;;;;;;;5138449;27;20316;-61
2023/03/07 06:51:48;;;;;;;6.25;5.65;;;;;;;;;;5139022;27;20198;-61
2023/03/07 06:54:15;;;;;;;6.68;5.95;;;;;;;;;;5138489;27;20693;-60
2023/03/07 06:56:42;;;;;;;7.43;6.82;;;;;;;;;;5137854;27;20225;-61
2023/03/07 06:59:10;;;;;;;7.78;6.65;;;;;;;;;;5138707;27;20216;-61
2023/03/07 07:01:37;;;;;;;7.70;6.88;;;;;;;;;;5138473;27;20198;-60
2023/03/07 07:04:06;;;;;;;8.38;7.57;;;;;;;;;;5139376;27;20213;-61
2023/03/07 07:06:34;;;;;;;8.63;7.72;;;;;;;;;;5138777;27;20292;-61
2023/03/07 07:09:01;;;;;;;8.65;7.95;;;;;;;;;;5138481;27;20454;-62
2023/03/07 07:11:28;;;;;;;8.30;7.60;;;;;;;;;;5138944;27;20301;-61
2023/03/07 07:13:56;;;;;;;8.93;8.02;;;;;;;;;;5138465;27;20299;-61
2023/03/07 07:16:23;;;;;;;9.32;8.50;;;;;;;;;;5139110;27;20238;-61
2023/03/07 07:18:51;;;;;;;9.45;8.55;;;;;;;;;;5139358;27;20232;-61
2023/03/07 07:21:20;;;;;;;8.73;7.93;;;;;;;;;;5139298;27;20206;-61
2023/03/07 07:23:48;;;;;;;9.65;8.80;;;;;;;;;;5139226;27;20285;-61
2023/03/07 07:26:15;;;;;;;9.00;8.10;;;;;;;;;;5139054;27;20297;-61
2023/03/07 07:28:43;;;;;;;9.27;8.45;;;;;;;;;;5158878;27;20277;-61
2023/03/07 07:31:10;;;;;;;9.40;8.60;;;;;;;;;;5158780;27;20709;-62
2023/03/07 07:33:38;;;;;;;9.15;8.35;;;;;;;;;;5138698;27;20301;-61
2023/03/07 07:36:06;;;;;;;9.13;8.32;;;;;;;;;;5138082;27;20221;-61
2023/03/07 07:38:35;;;;;;;8.73;8.02;;;;;;;;;;5138827;27;20596;-61
2023/03/07 07:41:02;;;;;;;10.65;8.60;;;;;;;;;;5138324;27;20600;-62
2023/03/07 07:43:30;;;;;;;8.82;8.00;;;;;;;;;;5138907;27;20305;-61
2023/03/07 07:45:57;;;;;;;9.27;8.45;;;;;;;;;;5138289;27;20304;-61
2023/03/07 07:48:25;;;;;;;8.75;8.05;;;;;;;;;;5138046;27;20198;-61
2023/03/07 07:50:52;;;;;;;9.25;8.45;;;;;;;;;;5138900;27;20210;-61
2023/03/07 07:53:20;;;;;;;9.10;8.30;;;;;;;;;;5138402;27;20198;-61
2023/03/07 07:55:48;;;;;;;10.10;9.20;;;;;;;;;;5139341;27;20194;-61
2023/03/07 07:58:16;;;;;;;9.98;9.05;;;;;;;;;;5137462;27;20233;-60
2023/03/07 08:00:44;;;;;;;9.00;8.30;;;;;;;;;;5138123;27;20202;-61
2023/03/07 08:03:11;;;;;;;8.85;8.02;;;;;;;;;;5138315;27;20412;-61
2023/03/07 08:05:39;;;;;;;8.80;7.97;;;;;;;;;;5138504;27;20578;-60
2023/03/07 08:08:07;;;;;;;8.63;7.90;;;;;;;;;;5137859;27;20289;-60
2023/03/07 08:10:34;;;;;;;8.93;8.13;;;;;;;;;;5138668;27;20621;-61
2023/03/07 08:13:03;;;;;;;8.70;8.00;;;;;;;;;;5138431;27;20248;-61
2023/03/07 08:15:31;;;;;;;8.50;7.70;;;;;;;;;;5138065;27;20247;-61
2023/03/07 08:17:59;;;;;;;8.52;7.72;;;;;;;;;;5138450;27;20222;-62
2023/03/07 08:20:26;;;;;;;8.50;7.72;;;;;;;;;;5138680;27;20194;-60
2023/03/07 08:22:54;;;;;;;7.78;7.07;;;;;;;;;;5138036;27;20206;-60
2023/03/07 08:25:22;;;;;;;7.80;7.05;;;;;;;;;;5137883;27;20206;-61
2023/03/07 08:27:51;;;;;;;8.02;7.22;;;;;;;;;;5138084;27;20529;-61
2023/03/07 08:30:21;;;;;;;7.75;7.05;;;;;;;;;;5137446;27;20232;-61
2023/03/07 08:32:50;;;;;;;8.13;7.43;;;;;;;;;;5153474;27;20297;-61
2023/03/07 08:35:17;;;;;;;7.70;7.00;;;;;;;;;;5158489;27;20208;-60
2023/03/07 08:37:45;;;;;;;7.63;6.82;;;;;;;;;;5157582;27;20247;-62
2023/03/07 08:40:13;;;;;;;7.68;7.00;;;;;;;;;;5158379;27;20201;-61
2023/03/07 08:42:40;;;;;;;7.45;6.78;;;;;;;;;;5158293;27;20205;-61
2023/03/07 08:45:08;;;;;;;7.22;6.63;;;;;;;;;;5158135;27;20212;-60
2023/03/07 08:47:37;;;;;;;7.55;6.95;;;;;;;;;;5158347;27;20197;-61
2023/03/07 08:50:05;;;;;;;7.30;6.63;;;;;;;;;;5158104;27;20212;-61
2023/03/07 08:52:32;;;;;;;7.25;6.57;;;;;;;;;;5158738;27;20201;-61
2023/03/07 08:55:00;;;;;;;7.32;6.72;;;;;;;;;;5157637;27;20204;-61
2023/03/07 08:57:27;;;;;;;7.07;6.47;;;;;;;;;;5157882;27;20201;-61
2023/03/07 08:59:55;;;;;;;7.20;6.60;;;;;;;;;;5157483;27;20225;-61
2023/03/07 09:02:22;;;;;;;6.85;6.28;;;;;;;;;;5158171;27;20197;-60
2023/03/07 09:04:51;;;;;;;6.55;6.05;;;;;;;;;;5159026;27;20211;-61
2023/03/07 09:07:18;;;;;;;6.78;6.18;;;;;;;;;;5157981;27;20252;-60
2023/03/07 09:09:46;;;;;;;6.28;5.72;;;;;;;;;;5157942;27;20578;-62
2023/03/07 09:12:13;;;;;;;6.57;5.93;;;;;;;;;;5158287;27;20233;-61
2023/03/07 09:14:41;;;;;;;7.13;6.53;;;;;;;;;;5157328;27;20666;-61
2023/03/07 09:17:08;;;;;;;6.43;5.88;;;;;;;;;;5157666;27;20227;-61
2023/03/07 09:19:35;;;;;;;6.63;6.03;;;;;;;;;;5157934;27;20228;-61
2023/03/07 09:22:04;;;;;;;6.75;6.15;;;;;;;;;;5157611;27;20211;-61
2023/03/07 09:24:32;;;;;;;5.97;5.47;;;;;;;;;;5157716;27;20201;-60
2023/03/07 09:26:59;;;;;;;6.28;5.70;;;;;;;;;;5157446;27;20201;-61
2023/03/07 09:29:27;;;;;;;6.03;5.53;;;;;;;;;;5157418;27;20200;-63
2023/03/07 09:31:54;;;;;;;6.43;5.93;;;;;;;;;;5157577;27;20788;-60
2023/03/07 09:34:22;;;;;;;5.82;5.32;;;;;;;;;;5157341;27;20207;-61
2023/03/07 09:36:51;;;;;;;6.20;5.57;;;;;;;;;;5157304;27;20212;-60
2023/03/07 09:39:20;;;;;;;6.03;5.47;;;;;;;;;;5157798;27;20221;-61
2023/03/07 09:41:54;;;;;;;5.60;5.15;;;;;;;;;;5157062;27;20201;-61
2023/03/07 09:44:25;;;;;;;5.63;5.13;;;;;;;;;;5157379;27;20197;-61
2023/03/07 09:47:01;;;;;;;5.82;5.32;;;;;;;;;;5157099;27;20488;-61
2023/03/07 09:49:31;;;;;;;5.70;5.20;;;;;;;;;;5159462;27;20196;-61
2023/03/07 09:52:00;;;;;;;6.40;5.60;;;;;;;;;;5161436;27;20201;-61
2023/03/07 09:54:33;;;;;;;5.97;5.47;;;;;;;;;;5160829;27;20197;-61
2023/03/07 09:57:01;;;;;;;6.40;5.45;;;;;;;;;;5161339;27;20655;-60
2023/03/07 09:59:32;;;;;;;5.47;5.07;;;;;;;;;;5160412;27;20329;-60
2023/03/07 10:02:05;;;;;;;5.50;5.00;;;;;;;;;;5160864;27;20254;-61
2023/03/07 10:04:37;;;;;;;5.68;5.18;;;;;;;;;;5161141;27;20205;-61
2023/03/07 10:07:05;;;;;;;5.30;4.80;;;;;;;;;;5161516;27;20193;-62
2023/03/07 10:09:34;;;;;;;5.65;5.15;;;;;;;;;;5161049;27;20197;-61
2023/03/07 10:12:09;;;;;;;5.18;4.78;;;;;;;;;;5160899;27;20244;-61
2023/03/07 10:14:41;;;;;;;5.40;4.80;;;;;;;;;;5161158;27;20301;-61
2023/03/07 10:17:17;;;;;;;5.30;4.80;;;;;;;;;;5160740;27;20198;-62
2023/03/07 10:19:47;;;;;;;5.13;4.72;;;;;;;;;;5159333;27;20221;-60
2023/03/07 10:22:19;;;;;;;5.68;4.63;;;;;;;;;;5160221;27;20204;-61
2023/03/07 10:25:04;;;;;;;5.45;4.95;;;;;;;;;;5144237;27;20190;-60
2023/03/07 10:27:34;;;;;;;5.22;4.72;;;;;;;;;;5138438;27;20251;-61
2023/03/07 10:30:07;;;;;;;5.50;4.90;;;;;;;;;;5139560;27;20281;-60
2023/03/07 10:32:37;;;;;;;4.70;4.30;;;;;;;;;;5139744;27;20290;-61
2023/03/07 10:35:15;;;;;;;4.80;4.35;;;;;;;;;;5139221;27;20212;-61
2023/03/07 10:37:49;;;;;;;4.85;4.43;;;;;;;;;;5139510;27;20204;-61
2023/03/07 10:40:18;;;;;;;5.00;4.60;;;;;;;;;;5138878;27;20205;-61
2023/03/07 10:42:47;;;;;;;5.28;4.78;;;;;;;;;;5144155;27;20276;-61
2023/03/07 10:45:15;;;;;;;4.80;4.40;;;;;;;;;;5160471;27;20204;-61
2023/03/07 10:47:43;;;;;;;4.90;4.50;;;;;;;;;;5159985;27;20292;-61
2023/03/07 10:50:25;;;;;;;5.10;4.70;;;;;;;;;;5158108;27;20204;-61
2023/03/07 10:52:54;;;;;;;4.70;4.15;;;;;;;;;;5155941;27;20506;-61
2023/03/07 10:55:31;;;;;;;4.53;4.13;;;;;;;;;;5158460;27;20194;-61
2023/03/07 10:58:12;;;;;;;4.93;4.53;;;;;;;;;;5159497;27;20202;-61
2023/03/07 11:00:39;;;;;;;4.70;4.30;;;;;;;;;;5159213;27;20205;-61
2023/03/07 11:03:20;;;;;;;4.22;3.85;;;;;;;;;;5159992;27;20193;-61
2023/03/07 11:05:48;;;;;;;4.50;4.10;;;;;;;;;;5159491;27;20207;-61
2023/03/07 11:08:21;;;;;;;4.80;4.40;;;;;;;;;;5159451;27;20652;-61
2023/03/07 11:10:49;;;;;;;5.22;3.78;;;;;;;;;;5158730;27;20194;-60
2023/03/07 11:13:18;;;;;;;4.53;4.13;;;;;;;;;;5159523;27;20197;-61
2023/03/07 11:15:46;;;;;;;4.93;4.53;;;;;;;;;;5159515;27;20301;-61
2023/03/07 11:18:25;;;;;;;4.43;4.03;;;;;;;;;;5151729;27;20248;-61
2023/03/07 11:20:53;;;;;;;7.70;4.10;;;;;;;;;;5138752;27;20202;-61
2023/03/07 11:23:22;;;;;;;4.45;4.00;;;;;;;;;;5138304;27;20209;-61
2023/03/07 11:25:50;;;;;;;5.90;4.40;;;;;;;;;;5138650;27;20617;-61
2023/03/07 11:28:28;;;;;;;4.50;3.90;;;;;;;;;;5139538;27;20206;-61
2023/03/07 11:31:00;;;;;;;4.45;3.97;;;;;;;;;;5138880;27;20267;-62
2023/03/07 11:33:29;;;;;;;4.32;3.88;;;;;;;;;;5138788;27;20742;-60
2023/03/07 11:35:59;;;;;;;4.25;3.65;;;;;;;;;;5137400;27;20202;-60
2023/03/07 11:38:32;;;;;;;4.57;4.18;;;;;;;;;;5138156;27;20218;-61
2023/03/07 11:41:01;;;;;;;3.97;3.63;;;;;;;;;;5138337;27;20202;-61
2023/03/07 11:43:41;;;;;;;4.15;3.78;;;;;;;;;;5137354;27;20202;-61
2023/03/07 11:46:11;;;;;;;4.22;3.83;;;;;;;;;;5137291;27;20233;-61
2023/03/07 11:48:48;;;;;;;5.57;4.03;;;;;;;;;;5136134;27;20293;-61
2023/03/07 11:51:24;;;;;;;5.43;3.90;;;;;;;;;;5136977;27;20202;-61
2023/03/07 11:53:58;;;;;;;3.72;3.42;;;;;;;;;;5137068;27;20198;-60
2023/03/07 11:56:30;;;;;;;4.00;3.60;;;;;;;;;;5137532;27;20194;-61
2023/03/07 11:59:05;;;;;;;5.15;4.07;;;;;;;;;;5136731;27;20233;-61
2023/03/07 12:01:37;;;;;;;4.05;3.50;;;;;;;;;;5137196;27;20304;-61
2023/03/07 12:04:25;;;;;;;4.18;3.70;;;;;;;;;;5136770;27;20198;-61
2023/03/07 12:06:58;;;;;;;4.30;3.90;;;;;;;;;;5137748;27;20680;-61
2023/03/07 12:09:34;;;;;;;3.72;3.42;;;;;;;;;;5137328;27;20230;-61
2023/03/07 12:12:17;;;;;;;4.35;4.03;;;;;;;;;;5135450;27;20293;-62
2023/03/07 12:14:51;;;;;;;4.00;3.53;;;;;;;;;;5136789;27;20238;-61
2023/03/07 12:17:26;;;;;;;5.38;3.80;;;;;;;;;;5136866;27;20669;-62
2023/03/07 12:20:08;;;;;;;4.03;3.70;;;;;;;;;;5137395;27;20236;-61
2023/03/07 12:22:38;;;;;;;4.18;3.78;;;;;;;;;;5138933;27;20763;-61
2023/03/07 12:25:13;;;;;;;3.80;3.50;;;;;;;;;;5134744;27;20297;-61
2023/03/07 12:27:44;;;;;;;3.75;3.45;;;;;;;;;;5135570;27;20295;-63
2023/03/07 12:30:18;;;;;;;3.67;3.33;;;;;;;;;;5135939;27;20497;-61
2023/03/07 12:32:46;;;;;;;3.90;3.60;;;;;;;;;;5132384;27;20229;-60
2023/03/07 12:35:18;;;;;;;3.67;3.38;;;;;;;;;;5134781;27;20212;-61
2023/03/07 12:37:48;;;;;;;4.00;3.60;;;;;;;;;;5133831;27;20201;-61
2023/03/07 12:40:19;;;;;;;3.80;3.40;;;;;;;;;;5134648;27;20274;-61
2023/03/07 12:42:52;;;;;;;3.45;3.15;;;;;;;;;;5134935;27;20202;-61
2023/03/07 12:45:22;;;;;;;3.60;3.30;;;;;;;;;;5133182;27;20202;-61
2023/03/07 12:47:56;;;;;;;3.60;3.30;;;;;;;;;;5133760;27;20217;-61
2023/03/07 12:50:27;;;;;;;4.00;3.35;;;;;;;;;;5132621;27;20501;-61
2023/03/07 12:52:55;;;;;;;3.85;3.47;;;;;;;;;;5135252;27;20209;-61
2023/03/07 12:55:26;;;;;;;3.67;3.15;;;;;;;;;;5135247;27;20213;-61
2023/03/07 12:57:58;;;;;;;3.55;3.25;;;;;;;;;;5134259;27;20466;-61
2023/03/07 13:00:27;;;;;;;3.65;3.35;;;;;;;;;;5135028;27;20222;-61
2023/03/07 13:02:58;;;;;;;3.35;3.05;;;;;;;;;;5134571;27;20203;-61
2023/03/07 13:05:25;;;;;;;3.67;3.30;;;;;;;;;;5133897;27;20201;-61
2023/03/07 13:07:53;;;;;;;3.30;3.00;;;;;;;;;;5133037;27;20208;-61
2023/03/07 13:10:22;;;;;;;3.17;2.88;;;;;;;;;;5133164;27;20756;-61
2023/03/07 13:12:50;;;;;;;3.10;2.75;;;;;;;;;;5133837;27;20198;-61
2023/03/07 13:15:36;;;;;;;3.30;3.00;;;;;;;;;;5134499;27;20262;-61
2023/03/07 13:18:05;;;;;;;3.13;2.90;;;;;;;;;;5133347;27;20202;-61
2023/03/07 13:20:37;;;;;;;3.25;2.95;;;;;;;;;;5133912;27;20236;-61
2023/03/07 13:23:28;;;;;;;2.85;2.65;;;;;;;;;;5132510;27;20204;-61
2023/03/07 13:26:02;;;;;;;3.05;2.83;;;;;;;;;;5111991;27;20198;-61
2023/03/07 13:28:43;;;;;;;3.10;2.90;;;;;;;;;;5133935;27;20696;-61
2023/03/07 13:31:27;;;;;;;3.30;3.00;;;;;;;;;;5133095;27;20208;-61
2023/03/07 13:33:57;;;;;;;3.95;3.03;;;;;;;;;;5132636;27;20430;-61
2023/03/07 13:36:32;;;;;;;2.90;2.70;;;;;;;;;;5133495;27;20201;-61
2023/03/07 13:38:59;;;;;;;2.80;2.60;;;;;;;;;;5133124;28;20225;-61
2023/03/07 13:41:53;;;;;;;3.10;2.80;;;;;;;;;;5133396;28;20198;-61
2023/03/07 13:44:37;;;;;;;3.05;2.78;;;;;;;;;;5075399;28;20562;-61
2023/03/07 13:47:05;;;;;;;2.70;2.50;;;;;;;;;;5134011;28;20624;-61
2023/03/07 13:49:43;;;;;;;2.63;2.42;;;;;;;;;;5133400;28;20609;-62
2023/03/07 13:52:32;;;;;;;2.67;2.45;;;;;;;;;;5133653;28;20426;-61
2023/03/07 13:55:00;;;;;;;2.55;2.35;;;;;;;;;;5134866;28;20309;-61
2023/03/07 13:57:32;;;;;;;3.00;2.65;;;;;;;;;;5133931;28;20206;-61
2023/03/07 13:59:59;;;;;;;2.75;2.55;;;;;;;;;;5134275;28;20222;-61
2023/03/07 14:02:27;;;;;;;2.70;2.50;;;;;;;;;;5134342;28;20198;-61
2023/03/07 14:04:58;;;;;;;2.75;2.55;;;;;;;;;;5133171;28;20224;-61
2023/03/07 14:07:28;;;;;;;2.47;2.28;;;;;;;;;;5133668;28;20214;-64
2023/03/07 14:09:57;;;;;;;2.70;2.50;;;;;;;;;;5133300;28;20209;-61
2023/03/07 14:12:34;;;;;;;2.40;2.20;;;;;;;;;;5133368;28;20202;-61
2023/03/07 14:15:09;;;;;;;2.58;2.38;;;;;;;;;;5133547;28;20209;-61
2023/03/07 14:17:46;;;;;;;2.60;2.40;;;;;;;;;;5133364;28;20473;-61
2023/03/07 14:20:19;;;;;;;2.40;2.20;;;;;;;;;;5131231;28;20248;-61
2023/03/07 14:22:58;;;;;;;2.95;2.40;;;;;;;;;;5132600;28;20209;-61
2023/03/07 14:25:26;;;;;;;3.10;2.80;;;;;;;;;;5133014;28;20202;-61
2023/03/07 14:27:56;;;;;;;2.88;2.50;;;;;;;;;;5131643;28;20360;-61
2023/03/07 14:30:25;;;;;;;2.22;2.08;;;;;;;;;;5131844;28;20487;-61
2023/03/07 14:32:53;;;;;;;2.55;2.35;;;;;;;;;;5130761;27;20385;-61
2023/03/07 14:35:41;;;;;;;2.58;2.38;;;;;;;;;;5133390;27;20210;-61
2023/03/07 14:38:09;;;;;;;2.50;2.30;;;;;;;;;;5137235;27;20198;-61
2023/03/07 14:40:42;;;;;;;2.58;2.38;;;;;;;;;;5136074;27;20223;-61
2023/03/07 14:43:19;;;;;;;2.50;2.30;;;;;;;;;;5135553;27;20210;-61
2023/03/07 14:45:49;;;;;;;2.78;2.58;;;;;;;;;;5136676;27;20194;-61
2023/03/07 14:48:28;;;;;;;2.60;2.40;;;;;;;;;;5135822;27;20212;-61
2023/03/07 14:51:11;;;;;;;2.50;2.20;;;;;;;;;;5136699;27;20198;-65
2023/03/07 14:53:38;;;;;;;2.75;2.55;;;;;;;;;;5136260;27;20277;-62
2023/03/07 14:56:07;;;;;;;2.35;2.15;;;;;;;;;;5135317;27;20205;-65
2023/03/07 14:58:36;;;;;;;2.60;2.40;;;;;;;;;;5137291;27;20200;-61